Parkerton, Wyoming
Current Conditions -  °F | °C
As of 11:53 AM on Saturday 25 Oct 2014 (Local Time) from KCPR Reporting Station
Clear Clear  
Wind Chill: 71°   Ceiling: Unl
Heat Index: 71°   Visibility: 10mi
Dew Point: 27°   Wind: 17mph
Humidity: 19%   Direction: 200°SSW
Pressure: 30.13"   Gusts: 28mph
Location:  43.0973°N, 105.88°W
Report Text: KCPR 251753Z 20015G24KT 10SM CLR 22/M03 A3013 RMK AO2 SLP164 T02171028 10217 20044 58010
Loading
Personal Weather Stations






























Interactive Weather Map
Tropical Storm Tracking
New forecast layout! Learn more

10-Day Weather Forecast

Advertisements
Track Severe Weather on mobile